sensor_id;sensor_type;location;lat;lon;timestamp;temperature;humidity
20700;DHT22;10511;51.232;9.420;2022-12-07T00:01:25;2.60;99.90
20700;DHT22;10511;51.232;9.420;2022-12-07T00:03:54;2.50;99.90
20700;DHT22;10511;51.232;9.420;2022-12-07T00:06:24;2.60;99.90
20700;DHT22;10511;51.232;9.420;2022-12-07T00:08:51;2.60;99.90
20700;DHT22;10511;51.232;9.420;2022-12-07T00:11:19;2.50;99.90
20700;DHT22;10511;51.232;9.420;2022-12-07T00:13:47;2.50;99.90
20700;DHT22;10511;51.232;9.420;2022-12-07T00:16:16;2.60;99.90
20700;DHT22;10511;51.232;9.420;2022-12-07T00:18:44;2.60;99.90
20700;DHT22;10511;51.232;9.420;2022-12-07T00:21:13;2.70;99.90
20700;DHT22;10511;51.232;9.420;2022-12-07T00:23:43;2.60;99.90
20700;DHT22;10511;51.232;9.420;2022-12-07T00:26:12;2.60;99.90
20700;DHT22;10511;51.232;9.420;2022-12-07T00:28:39;2.60;99.90
20700;DHT22;10511;51.232;9.420;2022-12-07T00:31:08;2.50;99.90
20700;DHT22;10511;51.232;9.420;2022-12-07T00:33:35;2.60;99.90
20700;DHT22;10511;51.232;9.420;2022-12-07T00:36:06;2.60;99.90
20700;DHT22;10511;51.232;9.420;2022-12-07T00:38:35;2.50;99.90
20700;DHT22;10511;51.232;9.420;2022-12-07T00:41:05;2.50;99.90
20700;DHT22;10511;51.232;9.420;2022-12-07T00:43:33;2.50;99.90
20700;DHT22;10511;51.232;9.420;2022-12-07T00:46:00;2.60;99.90
20700;DHT22;10511;51.232;9.420;2022-12-07T00:48:27;2.60;99.90
20700;DHT22;10511;51.232;9.420;2022-12-07T00:50:54;2.60;99.90
20700;DHT22;10511;51.232;9.420;2022-12-07T00:53:22;2.60;99.90
20700;DHT22;10511;51.232;9.420;2022-12-07T00:55:49;2.70;99.90
20700;DHT22;10511;51.232;9.420;2022-12-07T00:58:19;2.80;99.90
20700;DHT22;10511;51.232;9.420;2022-12-07T01:00:46;2.80;99.90
20700;DHT22;10511;51.232;9.420;2022-12-07T01:03:15;2.80;99.90
20700;DHT22;10511;51.232;9.420;2022-12-07T01:05:49;2.80;99.90
20700;DHT22;10511;51.232;9.420;2022-12-07T01:08:16;2.80;99.90
20700;DHT22;10511;51.232;9.420;2022-12-07T01:10:43;2.80;99.90
20700;DHT22;10511;51.232;9.420;2022-12-07T01:13:10;2.80;99.90
20700;DHT22;10511;51.232;9.420;2022-12-07T01:15:41;2.70;99.90
20700;DHT22;10511;51.232;9.420;2022-12-07T01:18:08;2.80;99.90
20700;DHT22;10511;51.232;9.420;2022-12-07T01:20:36;2.80;99.90
20700;DHT22;10511;51.232;9.420;2022-12-07T01:23:03;2.80;99.90
20700;DHT22;10511;51.232;9.420;2022-12-07T01:25:30;2.80;99.90
20700;DHT22;10511;51.232;9.420;2022-12-07T01:27:57;2.80;99.90
20700;DHT22;10511;51.232;9.420;2022-12-07T01:30:24;2.80;99.90
20700;DHT22;10511;51.232;9.420;2022-12-07T01:32:52;2.80;99.90
20700;DHT22;10511;51.232;9.420;2022-12-07T01:35:19;2.80;99.90
20700;DHT22;10511;51.232;9.420;2022-12-07T01:37:46;2.80;99.90
20700;DHT22;10511;51.232;9.420;2022-12-07T01:40:13;2.80;99.90
20700;DHT22;10511;51.232;9.420;2022-12-07T01:42:40;2.80;99.90
20700;DHT22;10511;51.232;9.420;2022-12-07T01:48:14;2.80;99.90
20700;DHT22;10511;51.232;9.420;2022-12-07T01:50:43;2.80;99.90
20700;DHT22;10511;51.232;9.420;2022-12-07T01:53:11;2.70;99.90
20700;DHT22;10511;51.232;9.420;2022-12-07T01:55:42;2.70;99.90
20700;DHT22;10511;51.232;9.420;2022-12-07T01:58:11;2.70;99.90
20700;DHT22;10511;51.232;9.420;2022-12-07T02:00:39;2.70;99.90
20700;DHT22;10511;51.232;9.420;2022-12-07T02:03:11;2.70;99.90
20700;DHT22;10511;51.232;9.420;2022-12-07T02:05:41;2.70;99.90
20700;DHT22;10511;51.232;9.420;2022-12-07T02:08:09;2.70;99.90
20700;DHT22;10511;51.232;9.420;2022-12-07T02:10:37;2.70;99.90
20700;DHT22;10511;51.232;9.420;2022-12-07T02:13:06;2.70;99.90
20700;DHT22;10511;51.232;9.420;2022-12-07T02:15:45;2.70;99.90
20700;DHT22;10511;51.232;9.420;2022-12-07T02:18:19;2.60;99.90
20700;DHT22;10511;51.232;9.420;2022-12-07T02:20:55;2.70;99.90
20700;DHT22;10511;51.232;9.420;2022-12-07T02:23:40;2.70;99.90
20700;DHT22;10511;51.232;9.420;2022-12-07T02:29:26;2.70;99.90
20700;DHT22;10511;51.232;9.420;2022-12-07T02:32:00;2.60;99.90
20700;DHT22;10511;51.232;9.420;2022-12-07T02:34:37;2.60;99.90
20700;DHT22;10511;51.232;9.420;2022-12-07T02:37:10;2.60;99.90
20700;DHT22;10511;51.232;9.420;2022-12-07T02:39:42;2.60;99.90
20700;DHT22;10511;51.232;9.420;2022-12-07T02:42:15;2.50;99.90
20700;DHT22;10511;51.232;9.420;2022-12-07T02:44:46;2.60;99.90
20700;DHT22;10511;51.232;9.420;2022-12-07T02:47:16;2.50;99.90
20700;DHT22;10511;51.232;9.420;2022-12-07T02:49:44;2.50;99.90
20700;DHT22;10511;51.232;9.420;2022-12-07T02:52:11;2.60;99.90
20700;DHT22;10511;51.232;9.420;2022-12-07T02:54:38;2.60;99.90
20700;DHT22;10511;51.232;9.420;2022-12-07T02:57:19;2.50;99.90
20700;DHT22;10511;51.232;9.420;2022-12-07T03:00:00;2.50;99.90
20700;DHT22;10511;51.232;9.420;2022-12-07T03:02:35;2.50;99.90
20700;DHT22;10511;51.232;9.420;2022-12-07T03:05:15;2.50;99.90
20700;DHT22;10511;51.232;9.420;2022-12-07T03:07:51;2.50;99.90
20700;DHT22;10511;51.232;9.420;2022-12-07T03:10:27;2.60;99.90
20700;DHT22;10511;51.232;9.420;2022-12-07T03:13:02;2.60;99.90
20700;DHT22;10511;51.232;9.420;2022-12-07T03:15:38;2.60;99.90
20700;DHT22;10511;51.232;9.420;2022-12-07T03:18:10;2.70;99.90
20700;DHT22;10511;51.232;9.420;2022-12-07T03:20:39;2.70;99.90
20700;DHT22;10511;51.232;9.420;2022-12-07T03:23:08;2.70;99.90
20700;DHT22;10511;51.232;9.420;2022-12-07T03:25:39;2.70;99.90
20700;DHT22;10511;51.232;9.420;2022-12-07T03:28:08;2.70;99.90
20700;DHT22;10511;51.232;9.420;2022-12-07T03:30:44;2.80;99.90
20700;DHT22;10511;51.232;9.420;2022-12-07T03:33:15;2.80;99.90
20700;DHT22;10511;51.232;9.420;2022-12-07T03:35:50;2.80;99.90
20700;DHT22;10511;51.232;9.420;2022-12-07T03:38:20;2.90;99.90
20700;DHT22;10511;51.232;9.420;2022-12-07T03:40:54;2.90;99.90
20700;DHT22;10511;51.232;9.420;2022-12-07T03:43:24;2.90;99.90
20700;DHT22;10511;51.232;9.420;2022-12-07T03:45:58;2.90;99.90
20700;DHT22;10511;51.232;9.420;2022-12-07T03:48:30;2.90;99.90
20700;DHT22;10511;51.232;9.420;2022-12-07T03:51:02;2.90;99.90
20700;DHT22;10511;51.232;9.420;2022-12-07T03:53:35;2.90;99.90
20700;DHT22;10511;51.232;9.420;2022-12-07T03:56:05;3.00;99.90
20700;DHT22;10511;51.232;9.420;2022-12-07T03:58:33;3.00;99.90
20700;DHT22;10511;51.232;9.420;2022-12-07T04:01:03;3.00;99.90
20700;DHT22;10511;51.232;9.420;2022-12-07T04:03:30;3.10;99.90
20700;DHT22;10511;51.232;9.420;2022-12-07T04:05:57;3.10;99.90
20700;DHT22;10511;51.232;9.420;2022-12-07T04:08:24;3.10;99.90
20700;DHT22;10511;51.232;9.420;2022-12-07T04:10:51;3.10;99.90
20700;DHT22;10511;51.232;9.420;2022-12-07T04:13:18;3.00;99.90
20700;DHT22;10511;51.232;9.420;2022-12-07T04:15:45;3.00;99.90
20700;DHT22;10511;51.232;9.420;2022-12-07T04:18:14;3.00;99.90
20700;DHT22;10511;51.232;9.420;2022-12-07T04:20:41;3.10;99.90
20700;DHT22;10511;51.232;9.420;2022-12-07T04:23:08;3.10;99.90
20700;DHT22;10511;51.232;9.420;2022-12-07T04:25:35;3.10;99.90
20700;DHT22;10511;51.232;9.420;2022-12-07T04:28:03;3.10;99.90
20700;DHT22;10511;51.232;9.420;2022-12-07T04:30:30;3.10;99.90
20700;DHT22;10511;51.232;9.420;2022-12-07T04:32:57;3.20;99.90
20700;DHT22;10511;51.232;9.420;2022-12-07T04:35:25;3.20;99.90
20700;DHT22;10511;51.232;9.420;2022-12-07T04:37:52;3.20;99.90
20700;DHT22;10511;51.232;9.420;2022-12-07T04:40:19;3.20;99.90
20700;DHT22;10511;51.232;9.420;2022-12-07T04:42:46;3.20;99.90
20700;DHT22;10511;51.232;9.420;2022-12-07T04:45:13;3.20;99.90
20700;DHT22;10511;51.232;9.420;2022-12-07T04:47:40;3.20;99.90
20700;DHT22;10511;51.232;9.420;2022-12-07T04:50:09;3.20;99.90
20700;DHT22;10511;51.232;9.420;2022-12-07T04:52:37;3.20;99.90
20700;DHT22;10511;51.232;9.420;2022-12-07T04:55:05;3.20;99.90
20700;DHT22;10511;51.232;9.420;2022-12-07T04:57:32;3.20;99.90
20700;DHT22;10511;51.232;9.420;2022-12-07T04:59:58;3.20;99.90
20700;DHT22;10511;51.232;9.420;2022-12-07T05:02:26;3.20;99.90
20700;DHT22;10511;51.232;9.420;2022-12-07T05:04:53;3.20;99.90
20700;DHT22;10511;51.232;9.420;2022-12-07T05:07:19;3.20;99.90
20700;DHT22;10511;51.232;9.420;2022-12-07T05:09:48;3.20;99.90
20700;DHT22;10511;51.232;9.420;2022-12-07T05:12:15;3.20;99.90
20700;DHT22;10511;51.232;9.420;2022-12-07T05:14:42;3.20;99.90
20700;DHT22;10511;51.232;9.420;2022-12-07T05:17:09;3.30;99.90
20700;DHT22;10511;51.232;9.420;2022-12-07T05:19:37;3.30;99.90
20700;DHT22;10511;51.232;9.420;2022-12-07T05:22:04;3.30;99.90
20700;DHT22;10511;51.232;9.420;2022-12-07T05:24:31;3.30;99.90
20700;DHT22;10511;51.232;9.420;2022-12-07T05:26:59;3.30;99.90
20700;DHT22;10511;51.232;9.420;2022-12-07T05:29:26;3.30;99.90
20700;DHT22;10511;51.232;9.420;2022-12-07T05:31:56;3.40;99.90
20700;DHT22;10511;51.232;9.420;2022-12-07T05:34:23;3.40;99.90
20700;DHT22;10511;51.232;9.420;2022-12-07T05:36:50;3.40;99.90
20700;DHT22;10511;51.232;9.420;2022-12-07T05:39:17;3.40;99.90
20700;DHT22;10511;51.232;9.420;2022-12-07T05:41:44;3.50;99.90
20700;DHT22;10511;51.232;9.420;2022-12-07T05:44:30;3.50;99.90
20700;DHT22;10511;51.232;9.420;2022-12-07T05:46:57;3.50;99.90
20700;DHT22;10511;51.232;9.420;2022-12-07T05:49:24;3.50;99.90
20700;DHT22;10511;51.232;9.420;2022-12-07T05:51:51;3.50;99.90
20700;DHT22;10511;51.232;9.420;2022-12-07T05:54:18;3.50;99.90
20700;DHT22;10511;51.232;9.420;2022-12-07T05:56:45;3.40;99.90
20700;DHT22;10511;51.232;9.420;2022-12-07T05:59:12;3.40;99.90
20700;DHT22;10511;51.232;9.420;2022-12-07T06:01:56;3.40;99.90
20700;DHT22;10511;51.232;9.420;2022-12-07T06:04:24;3.30;99.90
20700;DHT22;10511;51.232;9.420;2022-12-07T06:06:52;3.30;99.90
20700;DHT22;10511;51.232;9.420;2022-12-07T06:09:19;3.30;99.90
20700;DHT22;10511;51.232;9.420;2022-12-07T06:11:47;3.30;99.90
20700;DHT22;10511;51.232;9.420;2022-12-07T06:14:31;3.30;99.90
20700;DHT22;10511;51.232;9.420;2022-12-07T06:17:00;3.20;99.90
20700;DHT22;10511;51.232;9.420;2022-12-07T06:19:27;3.20;99.90
20700;DHT22;10511;51.232;9.420;2022-12-07T06:21:54;3.20;99.90
20700;DHT22;10511;51.232;9.420;2022-12-07T06:24:21;3.20;99.90
20700;DHT22;10511;51.232;9.420;2022-12-07T06:26:48;3.20;99.90
20700;DHT22;10511;51.232;9.420;2022-12-07T06:29:16;3.30;99.90
20700;DHT22;10511;51.232;9.420;2022-12-07T06:31:43;3.20;99.90
20700;DHT22;10511;51.232;9.420;2022-12-07T06:34:14;3.20;99.90
20700;DHT22;10511;51.232;9.420;2022-12-07T06:36:42;3.20;99.90
20700;DHT22;10511;51.232;9.420;2022-12-07T06:39:10;3.20;99.90
20700;DHT22;10511;51.232;9.420;2022-12-07T06:41:37;3.20;99.90
20700;DHT22;10511;51.232;9.420;2022-12-07T06:44:04;3.20;99.90
20700;DHT22;10511;51.232;9.420;2022-12-07T06:46:32;3.20;99.90
20700;DHT22;10511;51.232;9.420;2022-12-07T06:49:00;3.20;99.90
20700;DHT22;10511;51.232;9.420;2022-12-07T06:51:29;3.20;99.90
20700;DHT22;10511;51.232;9.420;2022-12-07T06:53:56;3.20;99.90
20700;DHT22;10511;51.232;9.420;2022-12-07T06:56:23;3.10;99.90
20700;DHT22;10511;51.232;9.420;2022-12-07T06:58:50;3.10;99.90
20700;DHT22;10511;51.232;9.420;2022-12-07T07:01:18;3.10;99.90
20700;DHT22;10511;51.232;9.420;2022-12-07T07:03:45;3.10;99.90
20700;DHT22;10511;51.232;9.420;2022-12-07T07:06:13;3.10;99.90
20700;DHT22;10511;51.232;9.420;2022-12-07T07:08:42;3.10;99.90
20700;DHT22;10511;51.232;9.420;2022-12-07T07:11:09;3.10;99.90
20700;DHT22;10511;51.232;9.420;2022-12-07T07:13:37;3.10;99.90
20700;DHT22;10511;51.232;9.420;2022-12-07T07:16:04;3.10;99.90
20700;DHT22;10511;51.232;9.420;2022-12-07T07:18:32;3.10;99.90
20700;DHT22;10511;51.232;9.420;2022-12-07T07:20:59;3.10;99.90
20700;DHT22;10511;51.232;9.420;2022-12-07T07:23:26;3.10;99.90
20700;DHT22;10511;51.232;9.420;2022-12-07T07:25:55;3.10;99.90
20700;DHT22;10511;51.232;9.420;2022-12-07T07:28:22;3.10;99.90
20700;DHT22;10511;51.232;9.420;2022-12-07T07:30:49;3.00;99.90
20700;DHT22;10511;51.232;9.420;2022-12-07T07:33:16;3.00;99.90
20700;DHT22;10511;51.232;9.420;2022-12-07T07:35:43;3.00;99.90
20700;DHT22;10511;51.232;9.420;2022-12-07T07:38:10;2.90;99.90
20700;DHT22;10511;51.232;9.420;2022-12-07T07:40:37;2.90;99.90
20700;DHT22;10511;51.232;9.420;2022-12-07T07:43:05;2.90;99.90
20700;DHT22;10511;51.232;9.420;2022-12-07T07:45:32;2.90;99.90
20700;DHT22;10511;51.232;9.420;2022-12-07T07:47:59;2.90;99.90
20700;DHT22;10511;51.232;9.420;2022-12-07T07:50:27;2.90;99.90
20700;DHT22;10511;51.232;9.420;2022-12-07T07:52:54;2.90;99.90
20700;DHT22;10511;51.232;9.420;2022-12-07T07:55:21;2.90;99.90
20700;DHT22;10511;51.232;9.420;2022-12-07T07:57:48;2.90;99.90
20700;DHT22;10511;51.232;9.420;2022-12-07T08:00:17;2.80;99.90
20700;DHT22;10511;51.232;9.420;2022-12-07T08:02:44;2.90;99.90
20700;DHT22;10511;51.232;9.420;2022-12-07T08:05:12;2.80;99.90
20700;DHT22;10511;51.232;9.420;2022-12-07T08:07:39;2.80;99.90
20700;DHT22;10511;51.232;9.420;2022-12-07T08:10:08;2.80;99.90
20700;DHT22;10511;51.232;9.420;2022-12-07T08:12:37;2.80;99.90
20700;DHT22;10511;51.232;9.420;2022-12-07T08:15:26;2.80;99.90
20700;DHT22;10511;51.232;9.420;2022-12-07T08:17:53;2.90;99.90
20700;DHT22;10511;51.232;9.420;2022-12-07T08:20:21;2.90;99.90
20700;DHT22;10511;51.232;9.420;2022-12-07T08:22:48;2.90;99.90
20700;DHT22;10511;51.232;9.420;2022-12-07T08:25:15;3.00;99.90
20700;DHT22;10511;51.232;9.420;2022-12-07T08:27:42;3.00;99.90
20700;DHT22;10511;51.232;9.420;2022-12-07T08:30:09;3.00;99.90
20700;DHT22;10511;51.232;9.420;2022-12-07T08:32:38;3.00;99.90
20700;DHT22;10511;51.232;9.420;2022-12-07T08:35:06;3.00;99.90
20700;DHT22;10511;51.232;9.420;2022-12-07T08:37:33;2.90;99.90
20700;DHT22;10511;51.232;9.420;2022-12-07T08:40:00;3.00;99.90
20700;DHT22;10511;51.232;9.420;2022-12-07T08:42:27;3.00;99.90
20700;DHT22;10511;51.232;9.420;2022-12-07T08:44:55;3.00;99.90
20700;DHT22;10511;51.232;9.420;2022-12-07T08:47:23;3.00;99.90
20700;DHT22;10511;51.232;9.420;2022-12-07T08:49:53;3.10;99.90
20700;DHT22;10511;51.232;9.420;2022-12-07T08:52:20;3.00;99.90
20700;DHT22;10511;51.232;9.420;2022-12-07T08:54:47;3.00;99.90
20700;DHT22;10511;51.232;9.420;2022-12-07T08:57:14;3.00;99.90
20700;DHT22;10511;51.232;9.420;2022-12-07T08:59:41;3.00;99.90
20700;DHT22;10511;51.232;9.420;2022-12-07T09:02:08;3.00;99.90
20700;DHT22;10511;51.232;9.420;2022-12-07T09:04:35;3.10;99.90
20700;DHT22;10511;51.232;9.420;2022-12-07T09:07:04;3.10;99.90
20700;DHT22;10511;51.232;9.420;2022-12-07T09:09:31;3.10;99.90
20700;DHT22;10511;51.232;9.420;2022-12-07T09:11:58;3.20;99.90
20700;DHT22;10511;51.232;9.420;2022-12-07T09:14:25;3.20;99.90
20700;DHT22;10511;51.232;9.420;2022-12-07T09:16:52;3.20;99.90
20700;DHT22;10511;51.232;9.420;2022-12-07T09:19:19;3.20;99.90
20700;DHT22;10511;51.232;9.420;2022-12-07T09:21:46;3.30;99.90
20700;DHT22;10511;51.232;9.420;2022-12-07T09:24:15;3.30;99.90
20700;DHT22;10511;51.232;9.420;2022-12-07T09:26:42;3.30;99.90
20700;DHT22;10511;51.232;9.420;2022-12-07T09:29:09;3.40;99.90
20700;DHT22;10511;51.232;9.420;2022-12-07T09:31:37;3.40;99.90
20700;DHT22;10511;51.232;9.420;2022-12-07T09:34:04;3.50;99.90
20700;DHT22;10511;51.232;9.420;2022-12-07T09:36:33;3.50;99.90
20700;DHT22;10511;51.232;9.420;2022-12-07T09:39:00;3.60;99.90
20700;DHT22;10511;51.232;9.420;2022-12-07T09:41:30;3.60;99.90
20700;DHT22;10511;51.232;9.420;2022-12-07T09:44:03;3.70;99.90
20700;DHT22;10511;51.232;9.420;2022-12-07T09:46:35;3.90;99.90
20700;DHT22;10511;51.232;9.420;2022-12-07T09:49:03;3.90;99.90
20700;DHT22;10511;51.232;9.420;2022-12-07T09:51:31;3.80;99.90
20700;DHT22;10511;51.232;9.420;2022-12-07T09:53:59;3.80;99.90
20700;DHT22;10511;51.232;9.420;2022-12-07T09:56:30;3.80;99.90
20700;DHT22;10511;51.232;9.420;2022-12-07T09:59:00;3.70;99.90
20700;DHT22;10511;51.232;9.420;2022-12-07T10:01:30;3.70;99.90
20700;DHT22;10511;51.232;9.420;2022-12-07T10:04:02;3.70;99.90
20700;DHT22;10511;51.232;9.420;2022-12-07T10:06:32;3.80;99.90
20700;DHT22;10511;51.232;9.420;2022-12-07T10:08:59;3.80;99.90
20700;DHT22;10511;51.232;9.420;2022-12-07T10:11:26;3.90;99.90
20700;DHT22;10511;51.232;9.420;2022-12-07T10:13:54;4.00;99.90
20700;DHT22;10511;51.232;9.420;2022-12-07T10:16:37;4.00;99.90
20700;DHT22;10511;51.232;9.420;2022-12-07T10:19:20;4.20;99.90
20700;DHT22;10511;51.232;9.420;2022-12-07T10:22:10;4.30;99.90
20700;DHT22;10511;51.232;9.420;2022-12-07T10:24:38;4.20;99.90
20700;DHT22;10511;51.232;9.420;2022-12-07T10:27:18;4.20;99.90
20700;DHT22;10511;51.232;9.420;2022-12-07T10:29:52;4.10;99.90
20700;DHT22;10511;51.232;9.420;2022-12-07T10:32:30;4.10;99.90
20700;DHT22;10511;51.232;9.420;2022-12-07T10:35:19;4.10;99.90
20700;DHT22;10511;51.232;9.420;2022-12-07T10:37:47;4.10;99.90
20700;DHT22;10511;51.232;9.420;2022-12-07T10:40:27;4.20;99.90
20700;DHT22;10511;51.232;9.420;2022-12-07T10:43:07;4.20;99.90
20700;DHT22;10511;51.232;9.420;2022-12-07T10:48:48;4.40;99.90
20700;DHT22;10511;51.232;9.420;2022-12-07T10:51:23;4.40;99.90
20700;DHT22;10511;51.232;9.420;2022-12-07T10:54:01;4.50;99.90
20700;DHT22;10511;51.232;9.420;2022-12-07T10:56:53;4.60;99.90
20700;DHT22;10511;51.232;9.420;2022-12-07T11:02:29;4.50;99.90
20700;DHT22;10511;51.232;9.420;2022-12-07T11:05:05;4.60;99.90
20700;DHT22;10511;51.232;9.420;2022-12-07T11:07:42;4.60;99.90
20700;DHT22;10511;51.232;9.420;2022-12-07T11:10:16;4.70;99.90
20700;DHT22;10511;51.232;9.420;2022-12-07T11:13:02;4.70;99.90
20700;DHT22;10511;51.232;9.420;2022-12-07T11:15:40;4.60;99.90
20700;DHT22;10511;51.232;9.420;2022-12-07T11:18:14;4.40;99.90
20700;DHT22;10511;51.232;9.420;2022-12-07T11:20:53;4.40;99.90
20700;DHT22;10511;51.232;9.420;2022-12-07T11:23:29;4.40;99.90
20700;DHT22;10511;51.232;9.420;2022-12-07T11:26:06;4.40;99.90
20700;DHT22;10511;51.232;9.420;2022-12-07T11:28:46;4.50;99.90
20700;DHT22;10511;51.232;9.420;2022-12-07T11:31:26;4.50;99.90
20700;DHT22;10511;51.232;9.420;2022-12-07T11:34:02;4.50;99.90
20700;DHT22;10511;51.232;9.420;2022-12-07T11:36:37;4.60;99.90
20700;DHT22;10511;51.232;9.420;2022-12-07T11:39:15;4.70;99.90
20700;DHT22;10511;51.232;9.420;2022-12-07T11:41:43;4.70;99.90
20700;DHT22;10511;51.232;9.420;2022-12-07T11:44:23;4.80;99.90
20700;DHT22;10511;51.232;9.420;2022-12-07T11:46:58;4.90;99.90
20700;DHT22;10511;51.232;9.420;2022-12-07T11:49:40;4.90;99.90
20700;DHT22;10511;51.232;9.420;2022-12-07T11:52:16;4.90;99.90
20700;DHT22;10511;51.232;9.420;2022-12-07T11:54:46;4.90;99.90
20700;DHT22;10511;51.232;9.420;2022-12-07T11:57:19;4.90;99.90
20700;DHT22;10511;51.232;9.420;2022-12-07T11:59:50;4.70;99.90
20700;DHT22;10511;51.232;9.420;2022-12-07T12:02:23;4.60;99.90
20700;DHT22;10511;51.232;9.420;2022-12-07T12:04:55;4.50;99.90
20700;DHT22;10511;51.232;9.420;2022-12-07T12:07:26;4.40;99.90
20700;DHT22;10511;51.232;9.420;2022-12-07T12:09:57;4.40;99.90
20700;DHT22;10511;51.232;9.420;2022-12-07T12:15:34;4.40;99.90
20700;DHT22;10511;51.232;9.420;2022-12-07T12:18:32;4.20;99.90
20700;DHT22;10511;51.232;9.420;2022-12-07T12:21:09;4.20;99.90
20700;DHT22;10511;51.232;9.420;2022-12-07T12:23:40;4.20;99.90
20700;DHT22;10511;51.232;9.420;2022-12-07T12:26:15;4.30;99.90
20700;DHT22;10511;51.232;9.420;2022-12-07T12:28:52;4.40;99.90
20700;DHT22;10511;51.232;9.420;2022-12-07T12:31:35;4.40;99.90
20700;DHT22;10511;51.232;9.420;2022-12-07T12:34:32;4.40;99.90
20700;DHT22;10511;51.232;9.420;2022-12-07T12:37:01;4.40;99.90
20700;DHT22;10511;51.232;9.420;2022-12-07T12:39:28;4.40;99.90
20700;DHT22;10511;51.232;9.420;2022-12-07T12:42:01;4.30;99.90
20700;DHT22;10511;51.232;9.420;2022-12-07T12:44:41;4.30;99.90
20700;DHT22;10511;51.232;9.420;2022-12-07T12:50:16;4.30;99.90
20700;DHT22;10511;51.232;9.420;2022-12-07T12:53:01;4.20;99.90
20700;DHT22;10511;51.232;9.420;2022-12-07T12:58:44;4.20;99.90
20700;DHT22;10511;51.232;9.420;2022-12-07T13:01:43;4.10;99.90
20700;DHT22;10511;51.232;9.420;2022-12-07T13:04:30;3.90;99.90
20700;DHT22;10511;51.232;9.420;2022-12-07T13:07:02;3.80;99.90
20700;DHT22;10511;51.232;9.420;2022-12-07T13:09:33;3.80;99.90
20700;DHT22;10511;51.232;9.420;2022-12-07T13:12:04;3.90;99.90
20700;DHT22;10511;51.232;9.420;2022-12-07T13:14:56;3.90;99.90
20700;DHT22;10511;51.232;9.420;2022-12-07T13:17:58;3.90;99.90
20700;DHT22;10511;51.232;9.420;2022-12-07T13:20:49;4.00;99.90
20700;DHT22;10511;51.232;9.420;2022-12-07T13:23:26;4.00;99.90
20700;DHT22;10511;51.232;9.420;2022-12-07T13:26:02;4.00;99.90
20700;DHT22;10511;51.232;9.420;2022-12-07T13:28:35;4.00;99.90
20700;DHT22;10511;51.232;9.420;2022-12-07T13:31:14;4.00;99.90
20700;DHT22;10511;51.232;9.420;2022-12-07T13:33:44;4.00;99.90
20700;DHT22;10511;51.232;9.420;2022-12-07T13:36:20;4.00;99.90
20700;DHT22;10511;51.232;9.420;2022-12-07T13:38:50;4.10;99.90
20700;DHT22;10511;51.232;9.420;2022-12-07T13:41:20;4.10;99.90
20700;DHT22;10511;51.232;9.420;2022-12-07T13:44:00;4.10;99.90
20700;DHT22;10511;51.232;9.420;2022-12-07T13:46:40;4.20;99.90
20700;DHT22;10511;51.232;9.420;2022-12-07T13:49:21;4.10;99.90
20700;DHT22;10511;51.232;9.420;2022-12-07T13:51:49;4.10;99.90
20700;DHT22;10511;51.232;9.420;2022-12-07T13:54:17;4.10;99.90
20700;DHT22;10511;51.232;9.420;2022-12-07T13:56:48;4.10;99.90
20700;DHT22;10511;51.232;9.420;2022-12-07T13:59:18;4.10;99.90
20700;DHT22;10511;51.232;9.420;2022-12-07T14:01:47;4.10;99.90
20700;DHT22;10511;51.232;9.420;2022-12-07T14:04:24;4.00;99.90
20700;DHT22;10511;51.232;9.420;2022-12-07T14:06:54;4.00;99.90
20700;DHT22;10511;51.232;9.420;2022-12-07T14:09:23;4.00;99.90
20700;DHT22;10511;51.232;9.420;2022-12-07T14:11:53;4.00;99.90
20700;DHT22;10511;51.232;9.420;2022-12-07T14:14:22;4.00;99.90
20700;DHT22;10511;51.232;9.420;2022-12-07T14:16:58;4.00;99.90
20700;DHT22;10511;51.232;9.420;2022-12-07T14:19:47;4.00;99.90
20700;DHT22;10511;51.232;9.420;2022-12-07T14:22:30;4.00;99.90
20700;DHT22;10511;51.232;9.420;2022-12-07T14:25:09;3.90;99.90
20700;DHT22;10511;51.232;9.420;2022-12-07T14:27:46;3.90;99.90
20700;DHT22;10511;51.232;9.420;2022-12-07T14:30:16;3.80;99.90
20700;DHT22;10511;51.232;9.420;2022-12-07T14:32:43;3.80;99.90
20700;DHT22;10511;51.232;9.420;2022-12-07T14:35:15;3.80;99.90
20700;DHT22;10511;51.232;9.420;2022-12-07T14:37:44;3.80;99.90
20700;DHT22;10511;51.232;9.420;2022-12-07T14:40:14;3.80;99.90
20700;DHT22;10511;51.232;9.420;2022-12-07T14:42:43;3.80;99.90
20700;DHT22;10511;51.232;9.420;2022-12-07T14:45:15;3.70;99.90
20700;DHT22;10511;51.232;9.420;2022-12-07T14:47:43;3.70;99.90
20700;DHT22;10511;51.232;9.420;2022-12-07T14:50:12;3.70;99.90
20700;DHT22;10511;51.232;9.420;2022-12-07T14:52:40;3.70;99.90
20700;DHT22;10511;51.232;9.420;2022-12-07T14:55:13;3.60;99.90
20700;DHT22;10511;51.232;9.420;2022-12-07T14:57:42;3.60;99.90
20700;DHT22;10511;51.232;9.420;2022-12-07T15:00:14;3.60;99.90
20700;DHT22;10511;51.232;9.420;2022-12-07T15:02:43;3.60;99.90
20700;DHT22;10511;51.232;9.420;2022-12-07T15:05:10;3.60;99.90
20700;DHT22;10511;51.232;9.420;2022-12-07T15:07:37;3.60;99.90
20700;DHT22;10511;51.232;9.420;2022-12-07T15:10:06;3.60;99.90
20700;DHT22;10511;51.232;9.420;2022-12-07T15:12:35;3.60;99.90
20700;DHT22;10511;51.232;9.420;2022-12-07T15:15:05;3.50;99.90
20700;DHT22;10511;51.232;9.420;2022-12-07T15:17:32;3.50;99.90
20700;DHT22;10511;51.232;9.420;2022-12-07T15:19:59;3.50;99.90
20700;DHT22;10511;51.232;9.420;2022-12-07T15:22:26;3.50;99.90
20700;DHT22;10511;51.232;9.420;2022-12-07T15:24:53;3.50;99.90
20700;DHT22;10511;51.232;9.420;2022-12-07T15:27:20;3.50;99.90
20700;DHT22;10511;51.232;9.420;2022-12-07T15:29:47;3.50;99.90
20700;DHT22;10511;51.232;9.420;2022-12-07T15:32:15;3.50;99.90
20700;DHT22;10511;51.232;9.420;2022-12-07T15:34:42;3.50;99.90
20700;DHT22;10511;51.232;9.420;2022-12-07T15:37:09;3.50;99.90
20700;DHT22;10511;51.232;9.420;2022-12-07T15:39:36;3.50;99.90
20700;DHT22;10511;51.232;9.420;2022-12-07T15:42:04;3.50;99.90
20700;DHT22;10511;51.232;9.420;2022-12-07T15:44:30;3.40;99.90
20700;DHT22;10511;51.232;9.420;2022-12-07T15:47:16;3.50;99.90
20700;DHT22;10511;51.232;9.420;2022-12-07T15:49:43;3.40;99.90
20700;DHT22;10511;51.232;9.420;2022-12-07T15:52:10;3.50;99.90
20700;DHT22;10511;51.232;9.420;2022-12-07T15:54:37;3.50;99.90
20700;DHT22;10511;51.232;9.420;2022-12-07T15:57:05;3.50;99.90
20700;DHT22;10511;51.232;9.420;2022-12-07T15:59:32;3.50;99.90
20700;DHT22;10511;51.232;9.420;2022-12-07T16:01:58;3.50;99.90
20700;DHT22;10511;51.232;9.420;2022-12-07T16:04:28;3.50;99.90
20700;DHT22;10511;51.232;9.420;2022-12-07T16:06:55;3.40;99.90
20700;DHT22;10511;51.232;9.420;2022-12-07T16:09:23;3.40;99.90
20700;DHT22;10511;51.232;9.420;2022-12-07T16:11:49;3.30;99.90
20700;DHT22;10511;51.232;9.420;2022-12-07T16:14:17;3.30;99.90
20700;DHT22;10511;51.232;9.420;2022-12-07T16:16:45;3.30;99.90
20700;DHT22;10511;51.232;9.420;2022-12-07T16:19:12;3.40;99.90
20700;DHT22;10511;51.232;9.420;2022-12-07T16:21:40;3.40;99.90
20700;DHT22;10511;51.232;9.420;2022-12-07T16:24:08;3.50;99.90
20700;DHT22;10511;51.232;9.420;2022-12-07T16:26:36;3.50;99.90
20700;DHT22;10511;51.232;9.420;2022-12-07T16:29:04;3.40;99.90